sensor_id;sensor_type;location;lat;lon;timestamp;temperature;humidity
68648;SHT31;55632;51.962;16.116;2023-03-23T00:02:02;10.47;78.95
68648;SHT31;55632;51.962;16.116;2023-03-23T00:07:02;10.44;79.00
68648;SHT31;55632;51.962;16.116;2023-03-23T00:12:03;10.43;79.04
68648;SHT31;55632;51.962;16.116;2023-03-23T00:17:07;10.38;79.11
68648;SHT31;55632;51.962;16.116;2023-03-23T00:22:10;10.33;79.20
68648;SHT31;55632;51.962;16.116;2023-03-23T00:27:11;10.27;79.27
68648;SHT31;55632;51.962;16.116;2023-03-23T00:32:16;10.21;79.32
68648;SHT31;55632;51.962;16.116;2023-03-23T00:37:18;10.14;79.31
68648;SHT31;55632;51.962;16.116;2023-03-23T00:42:19;10.03;79.06
68648;SHT31;55632;51.962;16.116;2023-03-23T00:47:22;9.92;78.75
68648;SHT31;55632;51.962;16.116;2023-03-23T00:52:23;9.81;78.76
68648;SHT31;55632;51.962;16.116;2023-03-23T00:57:24;9.78;78.87
68648;SHT31;55632;51.962;16.116;2023-03-23T01:02:25;9.78;78.88
68648;SHT31;55632;51.962;16.116;2023-03-23T01:07:26;9.84;78.91
68648;SHT31;55632;51.962;16.116;2023-03-23T01:12:28;9.89;78.93
68648;SHT31;55632;51.962;16.116;2023-03-23T01:17:30;9.91;78.99
68648;SHT31;55632;51.962;16.116;2023-03-23T01:22:32;9.93;78.93
68648;SHT31;55632;51.962;16.116;2023-03-23T01:27:33;9.98;78.94
68648;SHT31;55632;51.962;16.116;2023-03-23T01:32:34;9.92;78.97
68648;SHT31;55632;51.962;16.116;2023-03-23T01:37:36;9.86;79.02
68648;SHT31;55632;51.962;16.116;2023-03-23T01:42:38;9.79;79.06
68648;SHT31;55632;51.962;16.116;2023-03-23T01:47:41;9.74;79.11
68648;SHT31;55632;51.962;16.116;2023-03-23T01:52:43;9.67;79.23
68648;SHT31;55632;51.962;16.116;2023-03-23T01:57:44;9.67;79.43
68648;SHT31;55632;51.962;16.116;2023-03-23T02:02:50;9.71;79.67
68648;SHT31;55632;51.962;16.116;2023-03-23T02:07:57;9.75;79.86
68648;SHT31;55632;51.962;16.116;2023-03-23T02:13:02;9.86;79.84
68648;SHT31;55632;51.962;16.116;2023-03-23T02:18:09;9.95;79.77
68648;SHT31;55632;51.962;16.116;2023-03-23T02:23:46;10.02;79.59
68648;SHT31;55632;51.962;16.116;2023-03-23T02:39:37;10.01;78.96
68648;SHT31;55632;51.962;16.116;2023-03-23T02:44:43;10.01;78.89
68648;SHT31;55632;51.962;16.116;2023-03-23T02:49:46;10.05;78.89
68648;SHT31;55632;51.962;16.116;2023-03-23T02:54:51;10.06;78.86
68648;SHT31;55632;51.962;16.116;2023-03-23T02:59:54;10.12;78.76
68648;SHT31;55632;51.962;16.116;2023-03-23T03:05:06;10.19;78.57
68648;SHT31;55632;51.962;16.116;2023-03-23T03:20:38;10.40;78.08
68648;SHT31;55632;51.962;16.116;2023-03-23T03:25:43;10.47;77.96
68648;SHT31;55632;51.962;16.116;2023-03-23T03:30:55;10.53;77.86
68648;SHT31;55632;51.962;16.116;2023-03-23T03:35:59;10.55;77.76
68648;SHT31;55632;51.962;16.116;2023-03-23T03:41:03;10.62;77.54
68648;SHT31;55632;51.962;16.116;2023-03-23T03:46:04;10.65;77.37
68648;SHT31;55632;51.962;16.116;2023-03-23T03:51:06;10.71;77.07
68648;SHT31;55632;51.962;16.116;2023-03-23T03:56:10;10.78;76.85
68648;SHT31;55632;51.962;16.116;2023-03-23T04:01:20;10.83;76.70
68648;SHT31;55632;51.962;16.116;2023-03-23T04:06:24;10.91;76.42
68648;SHT31;55632;51.962;16.116;2023-03-23T04:11:28;10.96;76.24
68648;SHT31;55632;51.962;16.116;2023-03-23T04:16:46;10.96;76.12
68648;SHT31;55632;51.962;16.116;2023-03-23T04:21:47;11.05;75.83
68648;SHT31;55632;51.962;16.116;2023-03-23T04:26:51;11.05;75.67
68648;SHT31;55632;51.962;16.116;2023-03-23T04:31:59;11.10;75.58
68648;SHT31;55632;51.962;16.116;2023-03-23T04:37:10;11.12;75.57
68648;SHT31;55632;51.962;16.116;2023-03-23T04:42:11;11.13;75.54
68648;SHT31;55632;51.962;16.116;2023-03-23T04:47:41;11.10;75.46
68648;SHT31;55632;51.962;16.116;2023-03-23T04:52:53;11.13;75.47
68648;SHT31;55632;51.962;16.116;2023-03-23T04:57:57;11.16;75.30
68648;SHT31;55632;51.962;16.116;2023-03-23T05:03:10;11.19;75.13
68648;SHT31;55632;51.962;16.116;2023-03-23T05:08:11;11.24;74.66
68648;SHT31;55632;51.962;16.116;2023-03-23T05:13:15;11.28;74.48
68648;SHT31;55632;51.962;16.116;2023-03-23T05:18:16;11.37;74.22
68648;SHT31;55632;51.962;16.116;2023-03-23T05:23:18;11.41;74.12
68648;SHT31;55632;51.962;16.116;2023-03-23T05:28:31;11.52;73.57
68648;SHT31;55632;51.962;16.116;2023-03-23T05:34:04;11.55;73.37
68648;SHT31;55632;51.962;16.116;2023-03-23T05:39:30;11.59;73.23
68648;SHT31;55632;51.962;16.116;2023-03-23T05:44:47;11.65;72.99
68648;SHT31;55632;51.962;16.116;2023-03-23T05:49:48;11.71;72.82
68648;SHT31;55632;51.962;16.116;2023-03-23T05:54:52;11.82;72.80
68648;SHT31;55632;51.962;16.116;2023-03-23T05:59:55;11.90;72.51
68648;SHT31;55632;51.962;16.116;2023-03-23T06:04:58;12.04;72.31
68648;SHT31;55632;51.962;16.116;2023-03-23T06:10:07;12.10;71.88
68648;SHT31;55632;51.962;16.116;2023-03-23T06:15:13;12.16;71.96
68648;SHT31;55632;51.962;16.116;2023-03-23T06:20:37;12.24;71.85
68648;SHT31;55632;51.962;16.116;2023-03-23T06:25:55;12.35;71.79
68648;SHT31;55632;51.962;16.116;2023-03-23T06:31:03;12.46;71.74
68648;SHT31;55632;51.962;16.116;2023-03-23T06:36:10;12.55;71.64
68648;SHT31;55632;51.962;16.116;2023-03-23T06:41:38;12.69;71.51
68648;SHT31;55632;51.962;16.116;2023-03-23T06:46:40;12.83;71.54
68648;SHT31;55632;51.962;16.116;2023-03-23T06:51:52;13.04;71.09
68648;SHT31;55632;51.962;16.116;2023-03-23T06:56:53;13.35;70.21
68648;SHT31;55632;51.962;16.116;2023-03-23T07:01:54;13.70;69.18
68648;SHT31;55632;51.962;16.116;2023-03-23T07:06:55;14.06;68.29
68648;SHT31;55632;51.962;16.116;2023-03-23T07:11:57;14.28;67.23
68648;SHT31;55632;51.962;16.116;2023-03-23T07:17:11;14.42;66.72
68648;SHT31;55632;51.962;16.116;2023-03-23T07:22:18;14.48;66.03
68648;SHT31;55632;51.962;16.116;2023-03-23T07:27:26;14.49;65.99
68648;SHT31;55632;51.962;16.116;2023-03-23T07:32:31;14.46;66.00
68648;SHT31;55632;51.962;16.116;2023-03-23T07:37:32;14.51;65.66
68648;SHT31;55632;51.962;16.116;2023-03-23T07:42:33;14.59;65.17
68648;SHT31;55632;51.962;16.116;2023-03-23T07:47:34;14.73;64.95
68648;SHT31;55632;51.962;16.116;2023-03-23T07:52:36;14.77;64.03
68648;SHT31;55632;51.962;16.116;2023-03-23T07:57:39;14.89;63.62
68648;SHT31;55632;51.962;16.116;2023-03-23T08:02:40;15.03;62.89
68648;SHT31;55632;51.962;16.116;2023-03-23T08:08:11;15.17;62.40
68648;SHT31;55632;51.962;16.116;2023-03-23T08:13:30;15.35;62.19
68648;SHT31;55632;51.962;16.116;2023-03-23T08:18:47;15.49;61.81
68648;SHT31;55632;51.962;16.116;2023-03-23T08:24:00;15.65;61.18
68648;SHT31;55632;51.962;16.116;2023-03-23T08:29:19;15.77;61.03
68648;SHT31;55632;51.962;16.116;2023-03-23T08:34:23;15.90;60.03
68648;SHT31;55632;51.962;16.116;2023-03-23T08:39:40;16.05;59.90
68648;SHT31;55632;51.962;16.116;2023-03-23T08:45:01;16.26;59.47
68648;SHT31;55632;51.962;16.116;2023-03-23T08:50:24;16.48;58.14
68648;SHT31;55632;51.962;16.116;2023-03-23T08:55:44;16.56;56.93
68648;SHT31;55632;51.962;16.116;2023-03-23T09:00:57;16.57;56.53
68648;SHT31;55632;51.962;16.116;2023-03-23T09:06:17;16.63;56.60
68648;SHT31;55632;51.962;16.116;2023-03-23T09:11:19;16.67;56.60
68648;SHT31;55632;51.962;16.116;2023-03-23T09:16:20;16.67;55.92
68648;SHT31;55632;51.962;16.116;2023-03-23T09:21:20;16.63;56.28
68648;SHT31;55632;51.962;16.116;2023-03-23T09:26:22;16.60;55.45
68648;SHT31;55632;51.962;16.116;2023-03-23T09:31:23;16.59;56.09
68648;SHT31;55632;51.962;16.116;2023-03-23T09:36:27;16.79;55.62
68648;SHT31;55632;51.962;16.116;2023-03-23T09:52:20;17.03;55.13
68648;SHT31;55632;51.962;16.116;2023-03-23T10:02:55;16.95;56.22
68648;SHT31;55632;51.962;16.116;2023-03-23T10:07:59;16.79;57.33
68648;SHT31;55632;51.962;16.116;2023-03-23T10:13:18;16.74;58.82
68648;SHT31;55632;51.962;16.116;2023-03-23T10:18:33;16.74;59.26
68648;SHT31;55632;51.962;16.116;2023-03-23T10:28:54;16.70;60.16
68648;SHT31;55632;51.962;16.116;2023-03-23T10:34:01;16.67;60.71
68648;SHT31;55632;51.962;16.116;2023-03-23T10:39:17;16.73;61.03
68648;SHT31;55632;51.962;16.116;2023-03-23T10:44:20;16.77;61.08
68648;SHT31;55632;51.962;16.116;2023-03-23T11:00:23;16.88;62.08
68648;SHT31;55632;51.962;16.116;2023-03-23T11:05:35;16.88;61.51
68648;SHT31;55632;51.962;16.116;2023-03-23T11:10:40;16.83;60.61
68648;SHT31;55632;51.962;16.116;2023-03-23T11:15:43;16.81;60.11
68648;SHT31;55632;51.962;16.116;2023-03-23T11:20:49;16.90;60.44
68648;SHT31;55632;51.962;16.116;2023-03-23T11:31:10;16.97;60.20
68648;SHT31;55632;51.962;16.116;2023-03-23T11:36:12;16.91;60.30
68648;SHT31;55632;51.962;16.116;2023-03-23T11:41:18;16.91;60.29
68648;SHT31;55632;51.962;16.116;2023-03-23T11:46:24;16.91;60.68
68648;SHT31;55632;51.962;16.116;2023-03-23T11:51:59;17.00;60.64
68648;SHT31;55632;51.962;16.116;2023-03-23T11:57:01;17.11;60.97
68648;SHT31;55632;51.962;16.116;2023-03-23T12:12:37;17.18;60.17
68648;SHT31;55632;51.962;16.116;2023-03-23T12:18:01;17.08;60.61
68648;SHT31;55632;51.962;16.116;2023-03-23T12:23:35;17.00;60.54
68648;SHT31;55632;51.962;16.116;2023-03-23T12:28:58;16.92;60.87
68648;SHT31;55632;51.962;16.116;2023-03-23T12:34:32;16.88;61.18
68648;SHT31;55632;51.962;16.116;2023-03-23T12:45:06;16.92;61.60
68648;SHT31;55632;51.962;16.116;2023-03-23T12:50:23;16.92;61.62
68648;SHT31;55632;51.962;16.116;2023-03-23T12:56:12;16.92;61.72
68648;SHT31;55632;51.962;16.116;2023-03-23T13:01:25;17.01;62.06
68648;SHT31;55632;51.962;16.116;2023-03-23T13:11:36;17.31;62.11
68648;SHT31;55632;51.962;16.116;2023-03-23T13:16:59;17.38;61.65
68648;SHT31;55632;51.962;16.116;2023-03-23T13:22:14;17.35;60.57
68648;SHT31;55632;51.962;16.116;2023-03-23T13:27:24;17.32;60.33
68648;SHT31;55632;51.962;16.116;2023-03-23T13:32:38;17.32;60.37
68648;SHT31;55632;51.962;16.116;2023-03-23T13:37:51;17.40;59.57
68648;SHT31;55632;51.962;16.116;2023-03-23T13:42:55;17.39;59.88
68648;SHT31;55632;51.962;16.116;2023-03-23T13:48:17;17.46;60.07
68648;SHT31;55632;51.962;16.116;2023-03-23T13:53:44;17.53;59.48
68648;SHT31;55632;51.962;16.116;2023-03-23T13:58:50;17.57;59.52
68648;SHT31;55632;51.962;16.116;2023-03-23T14:03:54;17.60;58.87
68648;SHT31;55632;51.962;16.116;2023-03-23T14:09:07;17.57;58.10
68648;SHT31;55632;51.962;16.116;2023-03-23T14:14:20;17.65;58.50
68648;SHT31;55632;51.962;16.116;2023-03-23T14:19:24;17.73;58.19
68648;SHT31;55632;51.962;16.116;2023-03-23T14:24:38;17.80;57.23
68648;SHT31;55632;51.962;16.116;2023-03-23T14:29:40;17.77;57.13
68648;SHT31;55632;51.962;16.116;2023-03-23T14:34:41;17.78;56.65
68648;SHT31;55632;51.962;16.116;2023-03-23T14:39:48;17.76;55.94
68648;SHT31;55632;51.962;16.116;2023-03-23T14:44:50;17.71;54.18
68648;SHT31;55632;51.962;16.116;2023-03-23T14:49:59;17.67;53.05
68648;SHT31;55632;51.962;16.116;2023-03-23T14:55:20;17.54;53.18
68648;SHT31;55632;51.962;16.116;2023-03-23T15:00:29;17.46;53.05
68648;SHT31;55632;51.962;16.116;2023-03-23T15:05:34;17.32;53.82
68648;SHT31;55632;51.962;16.116;2023-03-23T15:10:39;17.19;54.38
68648;SHT31;55632;51.962;16.116;2023-03-23T15:15:41;17.10;55.32
68648;SHT31;55632;51.962;16.116;2023-03-23T15:25:54;16.92;57.42
68648;SHT31;55632;51.962;16.116;2023-03-23T15:30:59;16.84;57.65
68648;SHT31;55632;51.962;16.116;2023-03-23T15:36:16;16.74;58.34
68648;SHT31;55632;51.962;16.116;2023-03-23T15:41:28;16.67;59.09
68648;SHT31;55632;51.962;16.116;2023-03-23T15:46:35;16.59;59.64
68648;SHT31;55632;51.962;16.116;2023-03-23T15:51:35;16.53;60.24
68648;SHT31;55632;51.962;16.116;2023-03-23T15:56:37;16.42;60.96
68648;SHT31;55632;51.962;16.116;2023-03-23T16:01:40;16.38;61.40
68648;SHT31;55632;51.962;16.116;2023-03-23T16:06:42;16.30;61.80
68648;SHT31;55632;51.962;16.116;2023-03-23T16:11:44;16.29;61.94
68648;SHT31;55632;51.962;16.116;2023-03-23T16:16:48;16.18;62.17
68648;SHT31;55632;51.962;16.116;2023-03-23T16:21:50;16.14;62.32
68648;SHT31;55632;51.962;16.116;2023-03-23T16:26:51;16.08;62.64
68648;SHT31;55632;51.962;16.116;2023-03-23T16:31:56;16.04;62.87
68648;SHT31;55632;51.962;16.116;2023-03-23T16:36:57;15.93;63.05
68648;SHT31;55632;51.962;16.116;2023-03-23T16:41:58;15.89;63.35
68648;SHT31;55632;51.962;16.116;2023-03-23T16:46:59;15.84;63.65
68648;SHT31;55632;51.962;16.116;2023-03-23T16:52:00;15.77;63.86
68648;SHT31;55632;51.962;16.116;2023-03-23T16:57:05;15.73;64.13
68648;SHT31;55632;51.962;16.116;2023-03-23T17:02:11;15.69;64.61
68648;SHT31;55632;51.962;16.116;2023-03-23T17:07:12;15.56;65.10
68648;SHT31;55632;51.962;16.116;2023-03-23T17:12:13;15.46;65.37
68648;SHT31;55632;51.962;16.116;2023-03-23T17:17:14;15.42;65.73
68648;SHT31;55632;51.962;16.116;2023-03-23T17:22:16;15.38;65.98
68648;SHT31;55632;51.962;16.116;2023-03-23T17:27:18;15.31;66.24
68648;SHT31;55632;51.962;16.116;2023-03-23T17:32:19;15.25;66.43
68648;SHT31;55632;51.962;16.116;2023-03-23T17:37:23;15.18;66.71
68648;SHT31;55632;51.962;16.116;2023-03-23T17:42:29;15.07;66.72
68648;SHT31;55632;51.962;16.116;2023-03-23T17:47:30;15.04;66.36
68648;SHT31;55632;51.962;16.116;2023-03-23T17:52:31;15.00;66.31
68648;SHT31;55632;51.962;16.116;2023-03-23T17:57:35;14.93;66.32
68648;SHT31;55632;51.962;16.116;2023-03-23T18:02:36;14.87;66.45
68648;SHT31;55632;51.962;16.116;2023-03-23T18:07:39;14.80;66.54
68648;SHT31;55632;51.962;16.116;2023-03-23T18:12:42;14.68;66.67
68648;SHT31;55632;51.962;16.116;2023-03-23T18:17:42;14.56;66.89
68648;SHT31;55632;51.962;16.116;2023-03-23T18:22:49;14.45;67.10
68648;SHT31;55632;51.962;16.116;2023-03-23T18:27:53;14.31;67.32
68648;SHT31;55632;51.962;16.116;2023-03-23T18:32:54;14.20;67.48
68648;SHT31;55632;51.962;16.116;2023-03-23T18:37:56;14.06;67.71
68648;SHT31;55632;51.962;16.116;2023-03-23T18:42:57;13.97;67.81
68648;SHT31;55632;51.962;16.116;2023-03-23T18:48:01;13.89;67.88
68648;SHT31;55632;51.962;16.116;2023-03-23T18:53:03;13.82;67.97
68648;SHT31;55632;51.962;16.116;2023-03-23T18:58:04;13.73;68.06
68648;SHT31;55632;51.962;16.116;2023-03-23T19:03:06;13.65;68.18
68648;SHT31;55632;51.962;16.116;2023-03-23T19:08:08;13.55;68.43
68648;SHT31;55632;51.962;16.116;2023-03-23T19:13:10;13.37;68.74
68648;SHT31;55632;51.962;16.116;2023-03-23T19:18:14;13.15;69.06
68648;SHT31;55632;51.962;16.116;2023-03-23T19:23:15;12.95;69.34
68648;SHT31;55632;51.962;16.116;2023-03-23T19:28:17;12.69;69.64
68648;SHT31;55632;51.962;16.116;2023-03-23T19:33:18;12.44;70.03
68648;SHT31;55632;51.962;16.116;2023-03-23T19:38:21;12.24;70.51
68648;SHT31;55632;51.962;16.116;2023-03-23T19:43:22;12.09;71.06
68648;SHT31;55632;51.962;16.116;2023-03-23T19:48:23;12.03;71.50
68648;SHT31;55632;51.962;16.116;2023-03-23T19:53:24;11.97;71.78
68648;SHT31;55632;51.962;16.116;2023-03-23T19:58:30;11.89;71.96
68648;SHT31;55632;51.962;16.116;2023-03-23T20:03:31;11.79;72.06
68648;SHT31;55632;51.962;16.116;2023-03-23T20:08:32;11.69;72.29
68648;SHT31;55632;51.962;16.116;2023-03-23T20:13:34;11.57;72.45
68648;SHT31;55632;51.962;16.116;2023-03-23T20:18:36;11.44;72.63
68648;SHT31;55632;51.962;16.116;2023-03-23T20:23:38;11.33;72.95
68648;SHT31;55632;51.962;16.116;2023-03-23T20:28:39;11.28;73.43
68648;SHT31;55632;51.962;16.116;2023-03-23T20:33:42;11.30;73.77
68648;SHT31;55632;51.962;16.116;2023-03-23T20:38:44;11.33;74.08
68648;SHT31;55632;51.962;16.116;2023-03-23T20:43:46;11.38;74.20
68648;SHT31;55632;51.962;16.116;2023-03-23T20:48:47;11.37;74.33
68648;SHT31;55632;51.962;16.116;2023-03-23T20:53:50;11.37;74.43
68648;SHT31;55632;51.962;16.116;2023-03-23T20:58:51;11.26;74.43
68648;SHT31;55632;51.962;16.116;2023-03-23T21:03:53;11.14;74.52
68648;SHT31;55632;51.962;16.116;2023-03-23T21:08:56;11.05;74.70
68648;SHT31;55632;51.962;16.116;2023-03-23T21:13:57;10.95;74.90
68648;SHT31;55632;51.962;16.116;2023-03-23T21:18:58;10.83;75.06
68648;SHT31;55632;51.962;16.116;2023-03-23T21:24:00;10.75;75.26
68648;SHT31;55632;51.962;16.116;2023-03-23T21:29:01;10.64;75.30
68648;SHT31;55632;51.962;16.116;2023-03-23T21:34:04;10.50;75.38
68648;SHT31;55632;51.962;16.116;2023-03-23T21:39:05;10.40;75.70
68648;SHT31;55632;51.962;16.116;2023-03-23T21:44:06;10.29;75.89
68648;SHT31;55632;51.962;16.116;2023-03-23T21:49:10;10.20;76.13
68648;SHT31;55632;51.962;16.116;2023-03-23T21:54:13;10.12;76.23
68648;SHT31;55632;51.962;16.116;2023-03-23T21:59:14;10.02;76.55
68648;SHT31;55632;51.962;16.116;2023-03-23T22:04:17;9.98;76.93
68648;SHT31;55632;51.962;16.116;2023-03-23T22:09:22;9.92;77.04
68648;SHT31;55632;51.962;16.116;2023-03-23T22:14:23;9.84;77.18
68648;SHT31;55632;51.962;16.116;2023-03-23T22:19:24;9.79;77.40
68648;SHT31;55632;51.962;16.116;2023-03-23T22:24:25;9.71;77.64
68648;SHT31;55632;51.962;16.116;2023-03-23T22:29:29;9.64;77.74
68648;SHT31;55632;51.962;16.116;2023-03-23T22:34:30;9.58;77.93
68648;SHT31;55632;51.962;16.116;2023-03-23T22:39:32;9.51;78.09
68648;SHT31;55632;51.962;16.116;2023-03-23T22:44:33;9.47;78.32
68648;SHT31;55632;51.962;16.116;2023-03-23T22:49:34;9.39;78.59
68648;SHT31;55632;51.962;16.116;2023-03-23T22:54:37;9.36;78.87
68648;SHT31;55632;51.962;16.116;2023-03-23T22:59:38;9.33;79.01
68648;SHT31;55632;51.962;16.116;2023-03-23T23:04:40;9.30;79.23
68648;SHT31;55632;51.962;16.116;2023-03-23T23:09:43;9.24;79.50
68648;SHT31;55632;51.962;16.116;2023-03-23T23:14:45;9.23;79.78
68648;SHT31;55632;51.962;16.116;2023-03-23T23:19:45;9.23;79.98
68648;SHT31;55632;51.962;16.116;2023-03-23T23:24:46;9.20;80.18
68648;SHT31;55632;51.962;16.116;2023-03-23T23:29:47;9.15;80.33
68648;SHT31;55632;51.962;16.116;2023-03-23T23:34:51;9.12;80.45
68648;SHT31;55632;51.962;16.116;2023-03-23T23:39:52;9.09;80.55
68648;SHT31;55632;51.962;16.116;2023-03-23T23:44:53;9.06;80.74
68648;SHT31;55632;51.962;16.116;2023-03-23T23:49:56;9.01;80.90
68648;SHT31;55632;51.962;16.116;2023-03-23T23:54:57;8.98;81.04
